sensor_id;sensor_type;location;lat;lon;timestamp;P1;durP1;ratioP1;P2;durP2;ratioP2
85243;SDS011;75643;56.928;41.094;2024-03-08T00:01:32;4.80;;;2.33;;
85243;SDS011;75643;56.928;41.094;2024-03-08T00:03:58;5.30;;;2.10;;
85243;SDS011;75643;56.928;41.094;2024-03-08T00:06:24;5.32;;;2.03;;
85243;SDS011;75643;56.928;41.094;2024-03-08T00:08:52;6.18;;;2.30;;
85243;SDS011;75643;56.928;41.094;2024-03-08T00:11:18;5.50;;;2.35;;
85243;SDS011;75643;56.928;41.094;2024-03-08T00:13:44;3.25;;;1.85;;
85243;SDS011;75643;56.928;41.094;2024-03-08T00:16:10;3.78;;;1.88;;
85243;SDS011;75643;56.928;41.094;2024-03-08T00:18:37;4.88;;;1.90;;
85243;SDS011;75643;56.928;41.094;2024-03-08T00:21:03;3.88;;;1.75;;
85243;SDS011;75643;56.928;41.094;2024-03-08T00:23:30;4.00;;;1.92;;
85243;SDS011;75643;56.928;41.094;2024-03-08T00:25:57;3.20;;;1.45;;
85243;SDS011;75643;56.928;41.094;2024-03-08T00:28:23;4.95;;;2.13;;
85243;SDS011;75643;56.928;41.094;2024-03-08T00:30:51;3.60;;;1.90;;
85243;SDS011;75643;56.928;41.094;2024-03-08T00:33:17;2.60;;;1.58;;
85243;SDS011;75643;56.928;41.094;2024-03-08T00:35:43;2.40;;;1.30;;
85243;SDS011;75643;56.928;41.094;2024-03-08T00:38:09;2.95;;;1.23;;
85243;SDS011;75643;56.928;41.094;2024-03-08T00:40:35;2.35;;;1.60;;
85243;SDS011;75643;56.928;41.094;2024-03-08T00:43:02;3.90;;;1.70;;
85243;SDS011;75643;56.928;41.094;2024-03-08T00:45:29;3.33;;;1.65;;
85243;SDS011;75643;56.928;41.094;2024-03-08T00:47:55;3.58;;;1.38;;
85243;SDS011;75643;56.928;41.094;2024-03-08T00:50:21;1.60;;;1.08;;
85243;SDS011;75643;56.928;41.094;2024-03-08T00:52:48;4.80;;;2.13;;
85243;SDS011;75643;56.928;41.094;2024-03-08T00:55:14;3.10;;;1.35;;
85243;SDS011;75643;56.928;41.094;2024-03-08T00:57:41;3.45;;;1.20;;
85243;SDS011;75643;56.928;41.094;2024-03-08T01:00:07;1.90;;;1.15;;
85243;SDS011;75643;56.928;41.094;2024-03-08T01:02:38;2.83;;;1.63;;
85243;SDS011;75643;56.928;41.094;2024-03-08T01:05:05;2.10;;;1.38;;
85243;SDS011;75643;56.928;41.094;2024-03-08T01:07:36;2.13;;;1.25;;
85243;SDS011;75643;56.928;41.094;2024-03-08T01:10:03;1.55;;;1.40;;
85243;SDS011;75643;56.928;41.094;2024-03-08T01:12:30;2.40;;;1.40;;
85243;SDS011;75643;56.928;41.094;2024-03-08T01:14:56;4.40;;;2.03;;
85243;SDS011;75643;56.928;41.094;2024-03-08T01:17:24;2.47;;;1.60;;
85243;SDS011;75643;56.928;41.094;2024-03-08T01:19:50;5.57;;;1.80;;
85243;SDS011;75643;56.928;41.094;2024-03-08T01:22:19;5.55;;;1.80;;
85243;SDS011;75643;56.928;41.094;2024-03-08T01:24:45;3.50;;;1.52;;
85243;SDS011;75643;56.928;41.094;2024-03-08T01:27:11;4.13;;;1.77;;
85243;SDS011;75643;56.928;41.094;2024-03-08T01:29:38;3.88;;;2.30;;
85243;SDS011;75643;56.928;41.094;2024-03-08T01:32:04;3.40;;;1.35;;
85243;SDS011;75643;56.928;41.094;2024-03-08T01:34:32;8.13;;;1.48;;
85243;SDS011;75643;56.928;41.094;2024-03-08T01:36:58;4.05;;;2.20;;
85243;SDS011;75643;56.928;41.094;2024-03-08T01:39:25;3.60;;;1.83;;
85243;SDS011;75643;56.928;41.094;2024-03-08T01:41:52;7.65;;;2.83;;
85243;SDS011;75643;56.928;41.094;2024-03-08T01:44:19;5.85;;;2.63;;
85243;SDS011;75643;56.928;41.094;2024-03-08T01:46:49;6.47;;;2.85;;
85243;SDS011;75643;56.928;41.094;2024-03-08T01:49:18;8.25;;;3.38;;
85243;SDS011;75643;56.928;41.094;2024-03-08T01:51:47;7.05;;;2.17;;
85243;SDS011;75643;56.928;41.094;2024-03-08T01:54:16;6.47;;;2.90;;
85243;SDS011;75643;56.928;41.094;2024-03-08T01:56:44;9.80;;;3.20;;
85243;SDS011;75643;56.928;41.094;2024-03-08T01:59:12;7.28;;;3.30;;
85243;SDS011;75643;56.928;41.094;2024-03-08T02:01:40;6.07;;;2.83;;
85243;SDS011;75643;56.928;41.094;2024-03-08T02:04:07;8.73;;;3.30;;
85243;SDS011;75643;56.928;41.094;2024-03-08T02:06:33;6.97;;;2.47;;
85243;SDS011;75643;56.928;41.094;2024-03-08T02:09:00;8.02;;;2.83;;
85243;SDS011;75643;56.928;41.094;2024-03-08T02:11:26;6.50;;;2.65;;
85243;SDS011;75643;56.928;41.094;2024-03-08T02:13:53;4.90;;;2.47;;
85243;SDS011;75643;56.928;41.094;2024-03-08T02:16:23;4.47;;;2.25;;
85243;SDS011;75643;56.928;41.094;2024-03-08T02:18:49;6.43;;;2.40;;
85243;SDS011;75643;56.928;41.094;2024-03-08T02:21:16;5.63;;;2.65;;
85243;SDS011;75643;56.928;41.094;2024-03-08T02:23:47;4.25;;;2.60;;
85243;SDS011;75643;56.928;41.094;2024-03-08T02:26:13;4.88;;;2.10;;
85243;SDS011;75643;56.928;41.094;2024-03-08T02:28:39;4.47;;;2.58;;
85243;SDS011;75643;56.928;41.094;2024-03-08T02:31:08;3.30;;;1.58;;
85243;SDS011;75643;56.928;41.094;2024-03-08T02:33:35;4.35;;;2.22;;
85243;SDS011;75643;56.928;41.094;2024-03-08T02:36:01;2.97;;;1.73;;
85243;SDS011;75643;56.928;41.094;2024-03-08T02:38:27;3.80;;;2.08;;
85243;SDS011;75643;56.928;41.094;2024-03-08T02:40:54;4.47;;;2.42;;
85243;SDS011;75643;56.928;41.094;2024-03-08T02:43:21;4.78;;;1.95;;
85243;SDS011;75643;56.928;41.094;2024-03-08T02:45:48;4.72;;;1.88;;
85243;SDS011;75643;56.928;41.094;2024-03-08T02:48:15;5.10;;;2.22;;
85243;SDS011;75643;56.928;41.094;2024-03-08T02:50:44;2.85;;;1.70;;
85243;SDS011;75643;56.928;41.094;2024-03-08T02:53:11;2.92;;;1.60;;
85243;SDS011;75643;56.928;41.094;2024-03-08T02:55:38;2.70;;;1.52;;
85243;SDS011;75643;56.928;41.094;2024-03-08T02:58:07;2.33;;;1.40;;
85243;SDS011;75643;56.928;41.094;2024-03-08T03:00:38;3.35;;;1.67;;
85243;SDS011;75643;56.928;41.094;2024-03-08T03:03:05;4.45;;;1.88;;
85243;SDS011;75643;56.928;41.094;2024-03-08T03:05:32;3.08;;;1.65;;
85243;SDS011;75643;56.928;41.094;2024-03-08T03:07:59;2.97;;;1.95;;
85243;SDS011;75643;56.928;41.094;2024-03-08T03:10:26;2.90;;;1.60;;
85243;SDS011;75643;56.928;41.094;2024-03-08T03:12:53;3.38;;;2.00;;
85243;SDS011;75643;56.928;41.094;2024-03-08T03:15:20;3.47;;;1.73;;
85243;SDS011;75643;56.928;41.094;2024-03-08T03:17:47;5.20;;;2.13;;
85243;SDS011;75643;56.928;41.094;2024-03-08T03:20:19;3.13;;;1.85;;
85243;SDS011;75643;56.928;41.094;2024-03-08T03:22:52;3.75;;;2.03;;
85243;SDS011;75643;56.928;41.094;2024-03-08T03:25:19;5.28;;;2.25;;
85243;SDS011;75643;56.928;41.094;2024-03-08T03:27:55;4.18;;;2.30;;
85243;SDS011;75643;56.928;41.094;2024-03-08T03:30:24;6.18;;;2.53;;
85243;SDS011;75643;56.928;41.094;2024-03-08T03:32:52;4.57;;;1.92;;
85243;SDS011;75643;56.928;41.094;2024-03-08T03:35:20;3.75;;;2.00;;
85243;SDS011;75643;56.928;41.094;2024-03-08T03:37:48;3.42;;;2.15;;
85243;SDS011;75643;56.928;41.094;2024-03-08T03:40:28;3.25;;;1.95;;
85243;SDS011;75643;56.928;41.094;2024-03-08T03:42:55;4.78;;;2.10;;
85243;SDS011;75643;56.928;41.094;2024-03-08T03:45:22;4.53;;;2.13;;
85243;SDS011;75643;56.928;41.094;2024-03-08T03:47:48;3.13;;;1.70;;
85243;SDS011;75643;56.928;41.094;2024-03-08T03:50:15;4.45;;;2.55;;
85243;SDS011;75643;56.928;41.094;2024-03-08T03:52:47;4.38;;;2.15;;
85243;SDS011;75643;56.928;41.094;2024-03-08T03:55:14;3.35;;;1.60;;
85243;SDS011;75643;56.928;41.094;2024-03-08T03:57:41;3.83;;;2.03;;
85243;SDS011;75643;56.928;41.094;2024-03-08T04:00:07;4.22;;;2.00;;
85243;SDS011;75643;56.928;41.094;2024-03-08T04:02:40;3.28;;;1.75;;
85243;SDS011;75643;56.928;41.094;2024-03-08T04:05:07;3.03;;;1.98;;
85243;SDS011;75643;56.928;41.094;2024-03-08T04:07:35;4.20;;;1.80;;
85243;SDS011;75643;56.928;41.094;2024-03-08T04:10:05;4.40;;;2.10;;
85243;SDS011;75643;56.928;41.094;2024-03-08T04:12:34;4.22;;;1.70;;
85243;SDS011;75643;56.928;41.094;2024-03-08T04:15:01;2.38;;;1.52;;
85243;SDS011;75643;56.928;41.094;2024-03-08T04:17:32;3.88;;;2.20;;
85243;SDS011;75643;56.928;41.094;2024-03-08T04:19:59;2.90;;;1.58;;
85243;SDS011;75643;56.928;41.094;2024-03-08T04:22:25;3.97;;;1.90;;
85243;SDS011;75643;56.928;41.094;2024-03-08T04:24:51;3.55;;;1.90;;
85243;SDS011;75643;56.928;41.094;2024-03-08T04:27:18;4.32;;;2.17;;
85243;SDS011;75643;56.928;41.094;2024-03-08T04:29:44;4.88;;;2.00;;
85243;SDS011;75643;56.928;41.094;2024-03-08T04:32:11;4.15;;;1.98;;
85243;SDS011;75643;56.928;41.094;2024-03-08T04:34:39;4.20;;;2.10;;
85243;SDS011;75643;56.928;41.094;2024-03-08T04:37:07;4.43;;;2.17;;
85243;SDS011;75643;56.928;41.094;2024-03-08T04:39:40;2.83;;;1.85;;
85243;SDS011;75643;56.928;41.094;2024-03-08T04:42:06;3.45;;;1.90;;
85243;SDS011;75643;56.928;41.094;2024-03-08T04:44:38;3.85;;;1.88;;
85243;SDS011;75643;56.928;41.094;2024-03-08T04:47:05;3.97;;;2.08;;
85243;SDS011;75643;56.928;41.094;2024-03-08T04:49:34;4.72;;;2.25;;
85243;SDS011;75643;56.928;41.094;2024-03-08T04:52:03;5.13;;;2.15;;
85243;SDS011;75643;56.928;41.094;2024-03-08T04:54:31;3.97;;;2.45;;
85243;SDS011;75643;56.928;41.094;2024-03-08T04:56:57;5.40;;;2.60;;
85243;SDS011;75643;56.928;41.094;2024-03-08T04:59:27;6.25;;;2.50;;
85243;SDS011;75643;56.928;41.094;2024-03-08T05:01:53;5.50;;;2.30;;
85243;SDS011;75643;56.928;41.094;2024-03-08T05:04:20;4.28;;;2.05;;
85243;SDS011;75643;56.928;41.094;2024-03-08T05:06:47;7.53;;;3.10;;
85243;SDS011;75643;56.928;41.094;2024-03-08T05:09:14;5.65;;;2.60;;
85243;SDS011;75643;56.928;41.094;2024-03-08T05:11:44;6.35;;;2.80;;
85243;SDS011;75643;56.928;41.094;2024-03-08T05:14:11;5.60;;;2.50;;
85243;SDS011;75643;56.928;41.094;2024-03-08T05:16:42;11.25;;;4.25;;
85243;SDS011;75643;56.928;41.094;2024-03-08T05:19:09;5.50;;;2.30;;
85243;SDS011;75643;56.928;41.094;2024-03-08T05:21:35;4.45;;;2.13;;
85243;SDS011;75643;56.928;41.094;2024-03-08T05:24:02;6.88;;;3.00;;
85243;SDS011;75643;56.928;41.094;2024-03-08T05:26:28;5.50;;;2.47;;
85243;SDS011;75643;56.928;41.094;2024-03-08T05:28:56;6.10;;;2.72;;
85243;SDS011;75643;56.928;41.094;2024-03-08T05:31:22;6.28;;;2.53;;
85243;SDS011;75643;56.928;41.094;2024-03-08T05:33:49;5.38;;;2.80;;
85243;SDS011;75643;56.928;41.094;2024-03-08T05:36:16;5.72;;;3.00;;
85243;SDS011;75643;56.928;41.094;2024-03-08T05:38:44;6.30;;;2.92;;
85243;SDS011;75643;56.928;41.094;2024-03-08T05:41:10;4.40;;;2.53;;
85243;SDS011;75643;56.928;41.094;2024-03-08T05:43:40;7.80;;;2.60;;
85243;SDS011;75643;56.928;41.094;2024-03-08T05:46:07;6.53;;;3.10;;
85243;SDS011;75643;56.928;41.094;2024-03-08T05:48:33;4.70;;;2.50;;
85243;SDS011;75643;56.928;41.094;2024-03-08T05:51:00;3.20;;;2.17;;
85243;SDS011;75643;56.928;41.094;2024-03-08T05:53:28;5.90;;;3.05;;
85243;SDS011;75643;56.928;41.094;2024-03-08T05:55:58;5.78;;;2.60;;
85243;SDS011;75643;56.928;41.094;2024-03-08T05:58:24;4.63;;;2.38;;
85243;SDS011;75643;56.928;41.094;2024-03-08T06:00:51;4.78;;;2.58;;
85243;SDS011;75643;56.928;41.094;2024-03-08T06:03:17;6.28;;;2.47;;
85243;SDS011;75643;56.928;41.094;2024-03-08T06:10:42;6.93;;;2.38;;
85243;SDS011;75643;56.928;41.094;2024-03-08T06:13:09;4.85;;;2.47;;
85243;SDS011;75643;56.928;41.094;2024-03-08T06:15:37;5.72;;;2.60;;
85243;SDS011;75643;56.928;41.094;2024-03-08T06:18:04;4.28;;;2.20;;
85243;SDS011;75643;56.928;41.094;2024-03-08T06:20:31;4.50;;;2.47;;
85243;SDS011;75643;56.928;41.094;2024-03-08T06:22:57;5.05;;;2.80;;
85243;SDS011;75643;56.928;41.094;2024-03-08T06:25:23;5.38;;;2.92;;
85243;SDS011;75643;56.928;41.094;2024-03-08T06:27:52;6.30;;;2.60;;
85243;SDS011;75643;56.928;41.094;2024-03-08T06:30:19;6.88;;;2.92;;
85243;SDS011;75643;56.928;41.094;2024-03-08T06:32:47;5.97;;;2.40;;
85243;SDS011;75643;56.928;41.094;2024-03-08T06:35:14;3.20;;;2.10;;
85243;SDS011;75643;56.928;41.094;2024-03-08T06:37:41;3.80;;;2.30;;
85243;SDS011;75643;56.928;41.094;2024-03-08T06:40:10;3.45;;;2.22;;
85243;SDS011;75643;56.928;41.094;2024-03-08T06:42:39;5.80;;;2.40;;
85243;SDS011;75643;56.928;41.094;2024-03-08T06:45:07;4.15;;;2.40;;
85243;SDS011;75643;56.928;41.094;2024-03-08T06:47:34;4.93;;;3.22;;
85243;SDS011;75643;56.928;41.094;2024-03-08T06:50:01;6.93;;;3.90;;
85243;SDS011;75643;56.928;41.094;2024-03-08T06:52:28;5.40;;;2.90;;
85243;SDS011;75643;56.928;41.094;2024-03-08T06:54:54;4.68;;;2.63;;
85243;SDS011;75643;56.928;41.094;2024-03-08T06:57:21;4.90;;;2.70;;
85243;SDS011;75643;56.928;41.094;2024-03-08T06:59:52;6.28;;;3.40;;
85243;SDS011;75643;56.928;41.094;2024-03-08T07:02:24;5.65;;;3.08;;
85243;SDS011;75643;56.928;41.094;2024-03-08T07:04:51;4.40;;;2.85;;
85243;SDS011;75643;56.928;41.094;2024-03-08T07:07:18;4.68;;;2.70;;
85243;SDS011;75643;56.928;41.094;2024-03-08T07:09:47;5.18;;;2.47;;
85243;SDS011;75643;56.928;41.094;2024-03-08T07:12:15;7.47;;;4.03;;
85243;SDS011;75643;56.928;41.094;2024-03-08T07:14:41;3.83;;;2.25;;
85243;SDS011;75643;56.928;41.094;2024-03-08T07:17:10;3.40;;;2.38;;
85243;SDS011;75643;56.928;41.094;2024-03-08T07:19:37;3.90;;;2.58;;
85243;SDS011;75643;56.928;41.094;2024-03-08T07:22:04;6.85;;;3.20;;
85243;SDS011;75643;56.928;41.094;2024-03-08T07:24:37;6.32;;;2.72;;
85243;SDS011;75643;56.928;41.094;2024-03-08T07:27:36;5.57;;;2.67;;
85243;SDS011;75643;56.928;41.094;2024-03-08T07:30:03;5.00;;;2.63;;
85243;SDS011;75643;56.928;41.094;2024-03-08T07:32:31;6.55;;;3.30;;
85243;SDS011;75643;56.928;41.094;2024-03-08T07:34:57;4.70;;;3.05;;
85243;SDS011;75643;56.928;41.094;2024-03-08T07:37:24;4.82;;;2.88;;
85243;SDS011;75643;56.928;41.094;2024-03-08T07:39:51;4.53;;;2.72;;
85243;SDS011;75643;56.928;41.094;2024-03-08T07:42:17;4.78;;;2.80;;
85243;SDS011;75643;56.928;41.094;2024-03-08T07:44:44;5.75;;;2.88;;
85243;SDS011;75643;56.928;41.094;2024-03-08T07:47:11;6.00;;;2.88;;
85243;SDS011;75643;56.928;41.094;2024-03-08T07:49:38;4.13;;;2.58;;
85243;SDS011;75643;56.928;41.094;2024-03-08T07:52:04;4.35;;;2.35;;
85243;SDS011;75643;56.928;41.094;2024-03-08T07:54:33;7.88;;;4.03;;
85243;SDS011;75643;56.928;41.094;2024-03-08T07:57:01;8.98;;;4.80;;
85243;SDS011;75643;56.928;41.094;2024-03-08T07:59:28;9.43;;;4.80;;
85243;SDS011;75643;56.928;41.094;2024-03-08T08:01:56;5.53;;;3.40;;
85243;SDS011;75643;56.928;41.094;2024-03-08T08:04:23;4.88;;;3.10;;
85243;SDS011;75643;56.928;41.094;2024-03-08T08:06:51;5.32;;;2.83;;
85243;SDS011;75643;56.928;41.094;2024-03-08T08:09:17;4.50;;;2.80;;
85243;SDS011;75643;56.928;41.094;2024-03-08T08:11:54;5.13;;;2.97;;
85243;SDS011;75643;56.928;41.094;2024-03-08T08:14:21;3.92;;;2.30;;
85243;SDS011;75643;56.928;41.094;2024-03-08T08:16:48;4.97;;;2.40;;
85243;SDS011;75643;56.928;41.094;2024-03-08T08:19:18;3.72;;;2.30;;
85243;SDS011;75643;56.928;41.094;2024-03-08T08:21:45;5.40;;;2.20;;
85243;SDS011;75643;56.928;41.094;2024-03-08T08:24:12;4.97;;;2.60;;
85243;SDS011;75643;56.928;41.094;2024-03-08T08:26:39;7.03;;;3.40;;
85243;SDS011;75643;56.928;41.094;2024-03-08T08:29:07;7.20;;;3.78;;
85243;SDS011;75643;56.928;41.094;2024-03-08T08:31:34;8.82;;;5.15;;
85243;SDS011;75643;56.928;41.094;2024-03-08T08:34:00;8.88;;;4.55;;
85243;SDS011;75643;56.928;41.094;2024-03-08T08:36:29;13.82;;;5.80;;
85243;SDS011;75643;56.928;41.094;2024-03-08T08:38:55;6.50;;;3.58;;
85243;SDS011;75643;56.928;41.094;2024-03-08T08:41:25;13.23;;;4.85;;
85243;SDS011;75643;56.928;41.094;2024-03-08T08:43:54;10.32;;;3.72;;
85243;SDS011;75643;56.928;41.094;2024-03-08T08:46:20;9.43;;;4.07;;
85243;SDS011;75643;56.928;41.094;2024-03-08T08:48:47;12.82;;;4.15;;
85243;SDS011;75643;56.928;41.094;2024-03-08T08:51:13;5.95;;;3.00;;
85243;SDS011;75643;56.928;41.094;2024-03-08T08:53:41;11.55;;;4.80;;
85243;SDS011;75643;56.928;41.094;2024-03-08T08:56:13;7.78;;;3.30;;
85243;SDS011;75643;56.928;41.094;2024-03-08T08:58:42;7.03;;;3.10;;
85243;SDS011;75643;56.928;41.094;2024-03-08T09:01:09;9.23;;;3.90;;
85243;SDS011;75643;56.928;41.094;2024-03-08T09:03:38;8.13;;;3.78;;
85243;SDS011;75643;56.928;41.094;2024-03-08T09:06:10;10.95;;;4.05;;
85243;SDS011;75643;56.928;41.094;2024-03-08T09:08:36;10.55;;;3.80;;
85243;SDS011;75643;56.928;41.094;2024-03-08T09:11:22;7.50;;;3.13;;
85243;SDS011;75643;56.928;41.094;2024-03-08T09:13:51;5.35;;;2.70;;
85243;SDS011;75643;56.928;41.094;2024-03-08T09:16:17;4.93;;;2.65;;
85243;SDS011;75643;56.928;41.094;2024-03-08T09:18:44;6.13;;;3.38;;
85243;SDS011;75643;56.928;41.094;2024-03-08T09:21:11;9.35;;;4.03;;
85243;SDS011;75643;56.928;41.094;2024-03-08T09:23:40;5.63;;;3.30;;
85243;SDS011;75643;56.928;41.094;2024-03-08T09:26:07;9.63;;;4.72;;
85243;SDS011;75643;56.928;41.094;2024-03-08T09:28:35;7.10;;;3.40;;
85243;SDS011;75643;56.928;41.094;2024-03-08T09:31:01;5.15;;;3.28;;
85243;SDS011;75643;56.928;41.094;2024-03-08T09:33:29;7.25;;;3.33;;
85243;SDS011;75643;56.928;41.094;2024-03-08T09:36:02;18.13;;;6.70;;
85243;SDS011;75643;56.928;41.094;2024-03-08T09:38:31;11.98;;;5.43;;
85243;SDS011;75643;56.928;41.094;2024-03-08T09:40:57;11.38;;;5.05;;
85243;SDS011;75643;56.928;41.094;2024-03-08T09:43:23;5.03;;;2.55;;
85243;SDS011;75643;56.928;41.094;2024-03-08T09:45:50;5.82;;;3.05;;
85243;SDS011;75643;56.928;41.094;2024-03-08T09:48:17;4.35;;;2.58;;
85243;SDS011;75643;56.928;41.094;2024-03-08T09:50:45;3.97;;;2.90;;
85243;SDS011;75643;56.928;41.094;2024-03-08T09:53:12;3.65;;;2.58;;
85243;SDS011;75643;56.928;41.094;2024-03-08T09:55:40;4.82;;;2.40;;
85243;SDS011;75643;56.928;41.094;2024-03-08T09:58:11;3.78;;;2.35;;
85243;SDS011;75643;56.928;41.094;2024-03-08T10:00:56;3.38;;;2.10;;
85243;SDS011;75643;56.928;41.094;2024-03-08T10:03:23;2.85;;;2.20;;
85243;SDS011;75643;56.928;41.094;2024-03-08T10:05:52;4.22;;;2.30;;
85243;SDS011;75643;56.928;41.094;2024-03-08T10:08:19;3.75;;;2.00;;
85243;SDS011;75643;56.928;41.094;2024-03-08T10:10:46;3.63;;;2.00;;
85243;SDS011;75643;56.928;41.094;2024-03-08T10:13:12;3.78;;;1.92;;
85243;SDS011;75643;56.928;41.094;2024-03-08T10:15:40;2.78;;;1.65;;
85243;SDS011;75643;56.928;41.094;2024-03-08T10:18:08;3.45;;;2.20;;
85243;SDS011;75643;56.928;41.094;2024-03-08T10:20:36;4.50;;;2.22;;
85243;SDS011;75643;56.928;41.094;2024-03-08T10:23:03;6.95;;;2.33;;
85243;SDS011;75643;56.928;41.094;2024-03-08T10:25:31;3.78;;;2.10;;
85243;SDS011;75643;56.928;41.094;2024-03-08T10:27:58;2.97;;;1.90;;
85243;SDS011;75643;56.928;41.094;2024-03-08T10:30:29;3.45;;;2.03;;
85243;SDS011;75643;56.928;41.094;2024-03-08T10:32:55;3.70;;;2.15;;
85243;SDS011;75643;56.928;41.094;2024-03-08T10:35:22;3.42;;;1.90;;
85243;SDS011;75643;56.928;41.094;2024-03-08T10:37:50;3.88;;;2.42;;
85243;SDS011;75643;56.928;41.094;2024-03-08T10:40:28;3.80;;;1.88;;
85243;SDS011;75643;56.928;41.094;2024-03-08T10:43:00;3.00;;;1.83;;
85243;SDS011;75643;56.928;41.094;2024-03-08T10:50:49;2.30;;;1.40;;
85243;SDS011;75643;56.928;41.094;2024-03-08T10:53:19;2.50;;;1.70;;
85243;SDS011;75643;56.928;41.094;2024-03-08T10:55:49;3.97;;;1.90;;
85243;SDS011;75643;56.928;41.094;2024-03-08T10:58:22;3.00;;;2.00;;
85243;SDS011;75643;56.928;41.094;2024-03-08T11:00:53;4.70;;;2.45;;
85243;SDS011;75643;56.928;41.094;2024-03-08T11:06:18;2.60;;;1.50;;
85243;SDS011;75643;56.928;41.094;2024-03-08T11:14:55;3.30;;;1.83;;
85243;SDS011;75643;56.928;41.094;2024-03-08T11:19:58;1.75;;;1.10;;
85243;SDS011;75643;56.928;41.094;2024-03-08T11:22:29;2.58;;;1.42;;
85243;SDS011;75643;56.928;41.094;2024-03-08T11:25:03;2.15;;;1.33;;
85243;SDS011;75643;56.928;41.094;2024-03-08T11:27:35;2.50;;;1.48;;
85243;SDS011;75643;56.928;41.094;2024-03-08T11:30:05;4.35;;;2.28;;
85243;SDS011;75643;56.928;41.094;2024-03-08T11:32:44;3.88;;;1.90;;
85243;SDS011;75643;56.928;41.094;2024-03-08T11:35:21;2.92;;;1.83;;
85243;SDS011;75643;56.928;41.094;2024-03-08T11:37:51;3.65;;;1.80;;
85243;SDS011;75643;56.928;41.094;2024-03-08T11:40:18;3.38;;;1.88;;
85243;SDS011;75643;56.928;41.094;2024-03-08T11:42:46;2.60;;;1.50;;
85243;SDS011;75643;56.928;41.094;2024-03-08T11:45:19;2.45;;;1.67;;
85243;SDS011;75643;56.928;41.094;2024-03-08T11:47:47;3.33;;;1.67;;
85243;SDS011;75643;56.928;41.094;2024-03-08T11:50:14;3.10;;;1.67;;
85243;SDS011;75643;56.928;41.094;2024-03-08T11:52:41;2.83;;;1.35;;
85243;SDS011;75643;56.928;41.094;2024-03-08T11:55:09;7.55;;;1.75;;
85243;SDS011;75643;56.928;41.094;2024-03-08T11:57:38;4.13;;;2.20;;
85243;SDS011;75643;56.928;41.094;2024-03-08T12:00:04;3.60;;;1.98;;
85243;SDS011;75643;56.928;41.094;2024-03-08T12:02:35;3.88;;;1.40;;
85243;SDS011;75643;56.928;41.094;2024-03-08T12:05:03;3.80;;;1.85;;
85243;SDS011;75643;56.928;41.094;2024-03-08T12:07:35;2.53;;;1.60;;
85243;SDS011;75643;56.928;41.094;2024-03-08T12:10:18;3.30;;;1.73;;
85243;SDS011;75643;56.928;41.094;2024-03-08T12:12:48;2.92;;;1.50;;
85243;SDS011;75643;56.928;41.094;2024-03-08T12:15:18;3.58;;;1.42;;
85243;SDS011;75643;56.928;41.094;2024-03-08T12:17:49;4.90;;;2.00;;
85243;SDS011;75643;56.928;41.094;2024-03-08T12:22:48;2.40;;;1.45;;
85243;SDS011;75643;56.928;41.094;2024-03-08T12:25:17;2.05;;;1.40;;
85243;SDS011;75643;56.928;41.094;2024-03-08T12:27:44;2.13;;;1.38;;
85243;SDS011;75643;56.928;41.094;2024-03-08T12:30:16;2.58;;;1.38;;
85243;SDS011;75643;56.928;41.094;2024-03-08T12:32:54;5.40;;;1.70;;
85243;SDS011;75643;56.928;41.094;2024-03-08T12:35:26;3.03;;;1.52;;
85243;SDS011;75643;56.928;41.094;2024-03-08T12:38:11;2.15;;;1.40;;
85243;SDS011;75643;56.928;41.094;2024-03-08T12:40:38;3.10;;;1.60;;
85243;SDS011;75643;56.928;41.094;2024-03-08T12:43:07;2.63;;;1.60;;
85243;SDS011;75643;56.928;41.094;2024-03-08T12:45:35;8.23;;;3.90;;
85243;SDS011;75643;56.928;41.094;2024-03-08T12:48:01;3.17;;;1.65;;
85243;SDS011;75643;56.928;41.094;2024-03-08T12:50:29;3.30;;;1.92;;
85243;SDS011;75643;56.928;41.094;2024-03-08T12:52:56;3.95;;;2.00;;
85243;SDS011;75643;56.928;41.094;2024-03-08T12:55:22;4.75;;;2.00;;
85243;SDS011;75643;56.928;41.094;2024-03-08T12:57:49;4.68;;;2.60;;
85243;SDS011;75643;56.928;41.094;2024-03-08T13:00:15;4.25;;;2.20;;
85243;SDS011;75643;56.928;41.094;2024-03-08T13:02:45;4.00;;;1.90;;
85243;SDS011;75643;56.928;41.094;2024-03-08T13:05:14;3.30;;;1.60;;
85243;SDS011;75643;56.928;41.094;2024-03-08T13:07:41;3.10;;;1.88;;
85243;SDS011;75643;56.928;41.094;2024-03-08T13:10:13;3.65;;;2.10;;
85243;SDS011;75643;56.928;41.094;2024-03-08T13:12:42;5.68;;;2.47;;
85243;SDS011;75643;56.928;41.094;2024-03-08T13:15:09;3.65;;;1.92;;
85243;SDS011;75643;56.928;41.094;2024-03-08T13:17:41;3.78;;;1.77;;
85243;SDS011;75643;56.928;41.094;2024-03-08T13:20:10;3.08;;;2.20;;
85243;SDS011;75643;56.928;41.094;2024-03-08T13:22:45;2.72;;;1.73;;
85243;SDS011;75643;56.928;41.094;2024-03-08T13:25:14;2.47;;;1.83;;
85243;SDS011;75643;56.928;41.094;2024-03-08T13:27:41;4.78;;;2.90;;
85243;SDS011;75643;56.928;41.094;2024-03-08T13:30:09;6.35;;;3.63;;
85243;SDS011;75643;56.928;41.094;2024-03-08T13:32:40;3.03;;;1.98;;
85243;SDS011;75643;56.928;41.094;2024-03-08T13:35:10;2.72;;;1.48;;
85243;SDS011;75643;56.928;41.094;2024-03-08T13:37:42;4.57;;;2.45;;
85243;SDS011;75643;56.928;41.094;2024-03-08T13:40:10;8.68;;;4.63;;
85243;SDS011;75643;56.928;41.094;2024-03-08T13:42:40;1.63;;;1.40;;
85243;SDS011;75643;56.928;41.094;2024-03-08T13:45:10;14.90;;;6.47;;
85243;SDS011;75643;56.928;41.094;2024-03-08T13:47:38;5.90;;;2.10;;
85243;SDS011;75643;56.928;41.094;2024-03-08T13:50:10;2.85;;;1.73;;
85243;SDS011;75643;56.928;41.094;2024-03-08T13:52:40;2.70;;;1.70;;
85243;SDS011;75643;56.928;41.094;2024-03-08T13:55:10;2.88;;;1.58;;
85243;SDS011;75643;56.928;41.094;2024-03-08T13:57:45;2.72;;;1.90;;
85243;SDS011;75643;56.928;41.094;2024-03-08T14:00:12;5.13;;;2.63;;
85243;SDS011;75643;56.928;41.094;2024-03-08T14:02:40;3.92;;;2.28;;
85243;SDS011;75643;56.928;41.094;2024-03-08T14:05:07;3.20;;;1.80;;
85243;SDS011;75643;56.928;41.094;2024-03-08T14:07:35;2.17;;;1.52;;
85243;SDS011;75643;56.928;41.094;2024-03-08T14:10:03;1.77;;;1.13;;
85243;SDS011;75643;56.928;41.094;2024-03-08T14:12:35;2.53;;;1.27;;
85243;SDS011;75643;56.928;41.094;2024-03-08T14:15:04;1.80;;;1.20;;
85243;SDS011;75643;56.928;41.094;2024-03-08T14:17:33;1.90;;;1.25;;
85243;SDS011;75643;56.928;41.094;2024-03-08T14:20:01;2.72;;;1.60;;
85243;SDS011;75643;56.928;41.094;2024-03-08T14:22:29;3.40;;;1.55;;
85243;SDS011;75643;56.928;41.094;2024-03-08T14:24:57;2.08;;;1.20;;
85243;SDS011;75643;56.928;41.094;2024-03-08T14:27:24;2.28;;;1.25;;
85243;SDS011;75643;56.928;41.094;2024-03-08T14:29:55;1.90;;;1.52;;
85243;SDS011;75643;56.928;41.094;2024-03-08T14:32:23;2.03;;;1.40;;
85243;SDS011;75643;56.928;41.094;2024-03-08T14:37:48;3.58;;;1.98;;
85243;SDS011;75643;56.928;41.094;2024-03-08T14:40:22;7.03;;;2.40;;
85243;SDS011;75643;56.928;41.094;2024-03-08T14:42:54;4.03;;;2.17;;
85243;SDS011;75643;56.928;41.094;2024-03-08T14:45:22;4.22;;;2.15;;
85243;SDS011;75643;56.928;41.094;2024-03-08T14:47:49;5.70;;;2.22;;
85243;SDS011;75643;56.928;41.094;2024-03-08T14:50:24;6.07;;;2.50;;
85243;SDS011;75643;56.928;41.094;2024-03-08T14:52:52;11.82;;;3.65;;
85243;SDS011;75643;56.928;41.094;2024-03-08T14:55:18;8.30;;;3.08;;
85243;SDS011;75643;56.928;41.094;2024-03-08T14:57:48;6.45;;;2.92;;
85243;SDS011;75643;56.928;41.094;2024-03-08T15:00:20;10.18;;;3.75;;
85243;SDS011;75643;56.928;41.094;2024-03-08T15:03:16;11.23;;;3.72;;
85243;SDS011;75643;56.928;41.094;2024-03-08T15:05:46;9.80;;;4.15;;
85243;SDS011;75643;56.928;41.094;2024-03-08T15:08:16;7.30;;;3.47;;